createdAt,value
2022-09-04T00:01:02.684Z,83.42
2022-09-04T00:04:27.207Z,83.15
2022-09-04T00:07:39.498Z,83.36
2022-09-04T00:10:47.721Z,83.58
2022-09-04T00:14:00.237Z,83.91
2022-09-04T00:17:14.521Z,84.16
2022-09-04T00:20:28.832Z,84.40
2022-09-04T00:23:42.647Z,84.99
2022-09-04T00:26:49.197Z,84.76
2022-09-04T00:30:11.738Z,84.61
2022-09-04T00:33:32.573Z,85.22
2022-09-04T00:36:40.928Z,84.85
2022-09-04T00:40:09.259Z,84.67
2022-09-04T00:43:27.442Z,84.67
2022-09-04T00:46:56.333Z,84.64
2022-09-04T00:50:12.006Z,84.43
2022-09-04T00:53:36.552Z,84.18
2022-09-04T00:57:03.482Z,84.36
2022-09-04T01:00:12.759Z,84.72
2022-09-04T01:03:18.634Z,84.52
2022-09-04T01:06:37.998Z,84.70
2022-09-04T01:09:53.984Z,84.46
2022-09-04T01:13:12.987Z,83.92
2022-09-04T01:16:23.072Z,83.87
2022-09-04T01:20:03.436Z,83.94
2022-09-04T01:23:24.611Z,84.19
2022-09-04T01:26:36.131Z,84.18
2022-09-04T01:30:01.071Z,83.73
2022-09-04T01:33:27.593Z,84.26
2022-09-04T01:36:55.313Z,84.17
2022-09-04T01:40:16.217Z,83.92
2022-09-04T01:43:21.411Z,84.35
2022-09-04T01:46:32.912Z,84.50
2022-09-04T01:50:01.941Z,84.56
2022-09-04T01:53:27.992Z,84.48
2022-09-04T01:56:54.436Z,84.16
2022-09-04T02:00:13.207Z,83.87
2022-09-04T02:03:31.683Z,84.13
2022-09-04T02:06:53.723Z,84.51
2022-09-04T02:10:34.332Z,83.77
2022-09-04T02:14:14.420Z,83.62
2022-09-04T02:17:25.939Z,83.73
2022-09-04T02:20:30.971Z,83.47
2022-09-04T02:23:44.333Z,83.79
2022-09-04T02:26:55.606Z,83.78
2022-09-04T02:30:24.827Z,83.95
2022-09-04T02:33:35.510Z,83.78
2022-09-04T02:37:27.844Z,83.58
2022-09-04T02:41:15.080Z,84.02
2022-09-04T02:44:51.219Z,84.50
2022-09-04T02:48:18.548Z,84.58
2022-09-04T02:51:43.684Z,85.35
2022-09-04T02:54:57.760Z,85.29
2022-09-04T02:58:29.626Z,85.03
2022-09-04T03:01:49.756Z,84.91
2022-09-04T03:05:00.663Z,85.07
2022-09-04T03:08:20.932Z,85.13
2022-09-04T03:11:35.396Z,85.02
2022-09-04T03:15:01.177Z,85.14
2022-09-04T03:18:19.757Z,84.96
2022-09-04T03:21:43.646Z,84.92
2022-09-04T03:25:07.452Z,84.79
2022-09-04T03:28:40.115Z,85.08
2022-09-04T03:31:58.684Z,85.02
2022-09-04T03:35:29.939Z,85.11
2022-09-04T03:39:02.514Z,85.12
2022-09-04T03:42:28.630Z,84.38
2022-09-04T03:45:56.633Z,84.30
2022-09-04T03:49:22.766Z,85.12
2022-09-04T03:52:47.100Z,84.89
2022-09-04T03:56:01.393Z,84.82
2022-09-04T03:59:07.058Z,85.06
2022-09-04T04:02:17.343Z,84.73
2022-09-04T04:05:41.049Z,84.74
2022-09-04T04:08:46.398Z,84.98
2022-09-04T04:11:53.384Z,85.49
2022-09-04T04:15:06.493Z,86.14
2022-09-04T04:18:27.859Z,85.95
2022-09-04T04:21:57.768Z,85.14
2022-09-04T04:25:13.646Z,85.62
2022-09-04T04:28:34.348Z,85.63
2022-09-04T04:32:24.355Z,85.71
2022-09-04T04:35:33.175Z,86.16
2022-09-04T04:39:05.140Z,85.74
2022-09-04T04:42:34.910Z,86.09
2022-09-04T04:46:10.490Z,86.00
2022-09-04T04:49:39.913Z,85.92
2022-09-04T04:52:49.247Z,85.45
2022-09-04T04:56:16.344Z,84.96
2022-09-04T04:59:58.348Z,84.92
2022-09-04T05:03:19.660Z,85.76
2022-09-04T05:06:29.086Z,86.38
2022-09-04T05:09:48.799Z,87.86
2022-09-04T05:13:00.461Z,89.14
2022-09-04T05:16:23.033Z,90.05
2022-09-04T05:19:47.635Z,90.06
2022-09-04T05:23:28.877Z,89.52
2022-09-04T05:26:37.838Z,90.19
2022-09-04T05:29:57.431Z,89.58
2022-09-04T05:33:22.310Z,89.33
2022-09-04T05:36:40.450Z,88.65
2022-09-04T05:40:20.371Z,88.47
2022-09-04T05:43:29.190Z,88.09
2022-09-04T05:46:45.609Z,87.81
2022-09-04T05:50:32.051Z,87.99
2022-09-04T05:54:02.557Z,87.85
2022-09-04T05:57:26.567Z,88.10
2022-09-04T06:00:52.499Z,87.49
2022-09-04T06:04:13.547Z,87.06
2022-09-04T06:07:31.579Z,87.12
2022-09-04T06:11:02.424Z,86.85
2022-09-04T06:14:32.622Z,85.98
2022-09-04T06:18:13.742Z,85.52
2022-09-04T06:21:36.231Z,85.29
2022-09-04T06:24:59.733Z,83.82
2022-09-04T06:28:02.316Z,83.69
2022-09-04T06:31:05.283Z,82.86
2022-09-04T06:34:07.843Z,81.71
2022-09-04T06:37:45.897Z,81.01
2022-09-04T06:41:11.204Z,81.51
2022-09-04T06:44:32.901Z,79.83
2022-09-04T06:47:47.475Z,79.32
2022-09-04T06:51:24.028Z,78.96
2022-09-04T06:54:35.765Z,79.77
2022-09-04T06:58:12.129Z,78.67
2022-09-04T07:01:26.358Z,78.11
2022-09-04T07:04:40.431Z,77.49
2022-09-04T07:08:00.759Z,76.87
2022-09-04T07:11:18.592Z,77.26
2022-09-04T07:14:55.535Z,76.00
2022-09-04T07:18:26.544Z,76.30
2022-09-04T07:21:45.078Z,75.19
2022-09-04T07:25:09.326Z,74.75
2022-09-04T07:28:57.250Z,74.26
2022-09-04T07:32:00.569Z,72.69
2022-09-04T07:35:14.083Z,73.90
2022-09-04T07:38:40.684Z,74.28
2022-09-04T07:41:46.148Z,73.93
2022-09-04T07:45:07.769Z,71.66
2022-09-04T07:48:32.525Z,71.77
2022-09-04T07:51:45.764Z,71.12
2022-09-04T07:55:07.416Z,70.91
2022-09-04T07:58:36.692Z,69.02
2022-09-04T08:01:47.203Z,69.01
2022-09-04T08:05:15.099Z,68.81
2022-09-04T08:08:23.540Z,67.90
2022-09-04T08:11:38.064Z,67.23
2022-09-04T08:14:54.317Z,67.15
2022-09-04T08:18:09.505Z,67.29
2022-09-04T08:21:39.947Z,66.59
2022-09-04T08:25:02.240Z,65.87
2022-09-04T08:28:35.071Z,65.02
2022-09-04T08:32:05.963Z,64.18
2022-09-04T08:35:32.073Z,64.48
2022-09-04T08:38:48.656Z,63.42
2022-09-04T08:41:57.247Z,64.41
2022-09-04T08:45:42.182Z,64.94
2022-09-04T08:49:11.706Z,64.58
2022-09-04T08:52:33.917Z,64.98
2022-09-04T08:55:58.516Z,65.20
2022-09-04T08:59:37.028Z,64.98
2022-09-04T09:02:54.196Z,66.02
2022-09-04T09:06:13.258Z,66.13
2022-09-04T09:10:04.419Z,65.54
2022-09-04T09:13:29.252Z,64.83
2022-09-04T09:16:47.009Z,64.03
2022-09-04T09:20:00.225Z,64.35
2022-09-04T09:23:41.585Z,64.82
2022-09-04T09:26:44.898Z,65.57
2022-09-04T09:29:57.678Z,63.99
2022-09-04T09:33:18.812Z,62.92
2022-09-04T09:36:29.970Z,63.15
2022-09-04T09:40:21.909Z,62.51
2022-09-04T09:44:00.927Z,62.17
2022-09-04T09:47:15.712Z,62.72
2022-09-04T09:50:36.475Z,62.26
2022-09-04T09:54:16.607Z,62.94
2022-09-04T09:57:33.356Z,62.22
2022-09-04T10:01:14.593Z,61.38
2022-09-04T10:04:34.243Z,60.09
2022-09-04T10:08:00.439Z,60.00
2022-09-04T10:11:18.730Z,60.41
2022-09-04T10:14:36.240Z,60.93
2022-09-04T10:18:04.182Z,60.91
2022-09-04T10:21:12.404Z,60.67
2022-09-04T10:24:33.801Z,61.37
2022-09-04T10:28:10.055Z,60.04
2022-09-04T10:31:31.508Z,59.77
2022-09-04T10:34:34.241Z,59.30
2022-09-04T10:38:07.232Z,58.72
2022-09-04T10:41:26.329Z,59.37
2022-09-04T10:44:50.901Z,58.51
2022-09-04T10:48:44.096Z,55.91
2022-09-04T10:52:09.392Z,54.76
2022-09-04T10:55:33.190Z,51.97
2022-09-04T10:58:49.133Z,51.99
2022-09-04T11:02:02.634Z,50.63
2022-09-04T11:05:23.549Z,51.76
2022-09-04T11:08:44.351Z,49.84
2022-09-04T11:11:56.021Z,49.88
2022-09-04T11:15:35.751Z,47.48
2022-09-04T11:19:03.684Z,49.93
2022-09-04T11:22:24.604Z,50.06
2022-09-04T11:25:52.202Z,50.79
2022-09-04T11:29:27.484Z,50.84
2022-09-04T11:32:48.716Z,51.55
2022-09-04T11:36:21.949Z,51.53
2022-09-04T11:40:06.353Z,51.52
2022-09-04T11:43:44.567Z,52.11
2022-09-04T11:47:19.933Z,51.50
2022-09-04T11:51:01.525Z,52.27
2022-09-04T11:54:34.791Z,51.86
2022-09-04T11:57:45.033Z,51.77
2022-09-04T12:01:10.222Z,53.27
2022-09-04T12:04:28.536Z,52.57
2022-09-04T12:07:45.914Z,50.52
2022-09-04T12:11:16.366Z,48.48
2022-09-04T12:14:52.800Z,45.95
2022-09-04T12:18:01.838Z,46.55
2022-09-04T12:21:53.834Z,47.02
2022-09-04T12:25:05.519Z,47.26
2022-09-04T12:28:11.147Z,47.80
2022-09-04T12:31:23.128Z,50.36
2022-09-04T12:34:38.024Z,50.98
2022-09-04T12:38:09.028Z,51.25
2022-09-04T12:41:29.512Z,51.72
2022-09-04T12:45:10.040Z,49.38
2022-09-04T12:48:33.130Z,48.15
2022-09-04T12:52:01.641Z,47.42
2022-09-04T12:55:46.035Z,47.31
2022-09-04T12:58:52.367Z,47.07
2022-09-04T13:02:24.271Z,45.81
2022-09-04T13:05:52.821Z,45.73
2022-09-04T13:09:08.646Z,45.29
2022-09-04T13:12:17.656Z,47.28
2022-09-04T13:15:37.256Z,49.36
2022-09-04T13:19:00.516Z,50.17
2022-09-04T13:22:12.637Z,51.20
2022-09-04T13:25:32.058Z,51.79
2022-09-04T13:29:16.432Z,52.76
2022-09-04T13:32:46.959Z,52.52
2022-09-04T13:35:57.060Z,52.11
2022-09-04T13:39:18.604Z,49.69
2022-09-04T13:42:52.355Z,46.83
2022-09-04T13:46:00.261Z,45.56
2022-09-04T13:49:10.948Z,45.57
2022-09-04T13:52:34.680Z,45.52
2022-09-04T13:55:49.884Z,44.87
2022-09-04T13:58:58.981Z,44.68
2022-09-04T14:02:08.826Z,45.38
2022-09-04T14:05:14.495Z,46.01
2022-09-04T14:08:17.968Z,46.87
2022-09-04T14:11:39.376Z,46.57
2022-09-04T14:14:44.622Z,47.47
2022-09-04T14:18:03.123Z,46.29
2022-09-04T14:21:17.905Z,45.99
2022-09-04T14:24:35.031Z,44.61
2022-09-04T14:27:46.908Z,46.31
2022-09-04T14:31:02.292Z,46.32
2022-09-04T14:34:36.290Z,46.01
2022-09-04T14:38:07.129Z,45.01
2022-09-04T14:41:36.227Z,44.37
2022-09-04T14:45:04.023Z,44.17
2022-09-04T14:48:11.979Z,43.89
2022-09-04T14:51:31.317Z,44.07
2022-09-04T14:54:39.431Z,43.99
2022-09-04T14:57:59.465Z,43.69
2022-09-04T15:01:07.937Z,43.45
2022-09-04T15:04:30.522Z,44.99
2022-09-04T15:07:44.527Z,44.17
2022-09-04T15:10:54.796Z,45.32
2022-09-04T15:14:05.039Z,44.92
2022-09-04T15:17:13.016Z,45.33
2022-09-04T15:20:22.695Z,45.56
2022-09-04T15:23:36.573Z,45.54
2022-09-04T15:26:54.848Z,45.43
2022-09-04T15:30:11.904Z,46.07
2022-09-04T15:33:19.912Z,45.73
2022-09-04T15:36:24.565Z,46.04
2022-09-04T15:39:36.841Z,45.54
2022-09-04T15:42:56.684Z,45.34
2022-09-04T15:46:05.685Z,45.50
2022-09-04T15:49:39.899Z,46.32
2022-09-04T15:52:44.498Z,46.63
2022-09-04T15:56:06.306Z,46.42
2022-09-04T15:59:18.493Z,46.43
2022-09-04T16:02:59.412Z,46.39
2022-09-04T16:06:31.757Z,47.24
2022-09-04T16:09:45.460Z,47.69
2022-09-04T16:12:58.237Z,48.12
2022-09-04T16:16:12.530Z,48.76
2022-09-04T16:19:32.671Z,48.82
2022-09-04T16:23:00.761Z,49.32
2022-09-04T16:26:17.552Z,51.06
2022-09-04T16:29:30.910Z,53.17
2022-09-04T16:32:35.371Z,53.61
2022-09-04T16:35:43.087Z,55.95
2022-09-04T16:38:47.620Z,55.57
2022-09-04T16:41:56.723Z,57.38
2022-09-04T16:45:18.304Z,58.30
2022-09-04T16:48:39.904Z,59.45
2022-09-04T16:51:42.753Z,60.27
2022-09-04T16:54:50.652Z,60.37
2022-09-04T16:58:07.239Z,60.25
2022-09-04T17:01:31.027Z,61.56
2022-09-04T17:04:44.365Z,61.90
2022-09-04T17:08:16.338Z,61.55
2022-09-04T17:11:33.539Z,61.71
2022-09-04T17:14:47.190Z,62.13
2022-09-04T17:17:53.812Z,62.94
2022-09-04T17:25:35.431Z,63.17
2022-09-04T17:29:15.821Z,63.33
2022-09-04T17:29:47.107Z,64.83
2022-09-04T17:37:13.350Z,64.86
2022-09-04T17:40:49.263Z,66.39
2022-09-04T17:40:56.304Z,65.23
2022-09-04T17:44:02.935Z,66.62
2022-09-04T17:47:42.944Z,66.76
2022-09-04T17:51:00.852Z,67.04
2022-09-04T17:54:12.031Z,66.87
2022-09-04T17:57:26.423Z,67.60
2022-09-04T18:01:15.015Z,67.84
2022-09-04T18:04:39.671Z,67.64
2022-09-04T18:08:09.189Z,68.12
2022-09-04T18:11:20.729Z,68.69
2022-09-04T18:14:38.982Z,69.29
2022-09-04T18:17:45.125Z,69.48
2022-09-04T18:20:57.611Z,69.67
2022-09-04T18:24:35.711Z,70.05
2022-09-04T18:27:48.923Z,69.97
2022-09-04T18:37:07.302Z,70.55
2022-09-04T18:37:18.212Z,70.41
2022-09-04T18:38:01.600Z,69.98
2022-09-04T18:45:50.342Z,70.17
2022-09-04T18:50:29.133Z,70.94
2022-09-04T18:50:45.735Z,70.91
2022-09-04T18:51:58.190Z,71.67
2022-09-04T18:55:13.580Z,71.98
2022-09-04T18:58:50.143Z,72.30
2022-09-04T19:02:18.718Z,71.40
2022-09-04T19:05:36.456Z,71.49
2022-09-04T19:08:51.448Z,71.07
2022-09-04T19:12:03.336Z,71.05
2022-09-04T19:15:22.614Z,70.59
2022-09-04T19:18:43.657Z,70.71
2022-09-04T19:21:58.569Z,70.70
2022-09-04T19:25:19.164Z,71.50
2022-09-04T19:28:52.639Z,72.07
2022-09-04T19:32:06.092Z,72.08
2022-09-04T19:35:30.127Z,72.47
2022-09-04T19:45:55.416Z,71.89
2022-09-04T19:46:09.186Z,71.40
2022-09-04T19:46:13.768Z,71.25
2022-09-04T19:51:24.247Z,70.58
2022-09-04T19:53:30.004Z,69.47
2022-09-04T19:57:32.973Z,71.04
2022-09-04T20:00:38.376Z,70.09
2022-09-04T20:03:45.867Z,70.20
2022-09-04T20:06:54.600Z,71.06
2022-09-04T20:10:01.868Z,70.04
2022-09-04T20:13:16.823Z,70.72
2022-09-04T20:16:31.793Z,69.52
2022-09-04T20:19:52.423Z,69.27
2022-09-04T20:23:34.287Z,69.93
2022-09-04T20:26:56.296Z,71.64
2022-09-04T20:30:07.579Z,70.49
2022-09-04T20:33:19.147Z,71.55
2022-09-04T20:36:29.356Z,71.22
2022-09-04T20:39:41.897Z,70.50
2022-09-04T20:43:03.529Z,70.29
2022-09-04T20:52:43.864Z,70.10
2022-09-04T20:53:00.564Z,70.02
2022-09-04T20:54:04.903Z,69.97
2022-09-04T21:00:23.600Z,69.16
2022-09-04T21:03:17.247Z,69.30
2022-09-04T21:04:34.871Z,68.55
2022-09-04T21:08:15.879Z,68.43
2022-09-04T21:11:40.499Z,68.59
2022-09-04T21:14:49.475Z,68.41
2022-09-04T21:18:07.379Z,68.44
2022-09-04T21:21:34.880Z,69.09
2022-09-04T21:24:59.764Z,69.19
2022-09-04T21:28:33.643Z,69.46
2022-09-04T21:31:44.027Z,69.71
2022-09-04T21:35:01.761Z,69.21
2022-09-04T21:38:12.620Z,69.76
2022-09-04T21:41:15.247Z,69.67
2022-09-04T21:44:30.024Z,69.88
2022-09-04T21:47:44.734Z,69.49
2022-09-04T21:51:18.734Z,69.46
2022-09-04T21:54:37.841Z,69.97
2022-09-04T22:02:29.760Z,70.17
2022-09-04T22:02:35.102Z,70.00
2022-09-04T22:05:32.339Z,69.87
2022-09-04T22:13:28.627Z,70.78
2022-09-04T22:13:43.201Z,71.15
2022-09-04T22:16:09.413Z,70.94
2022-09-04T22:19:26.835Z,71.38
2022-09-04T22:22:49.949Z,71.18
2022-09-04T22:26:23.263Z,70.74
2022-09-04T22:30:01.801Z,70.89
2022-09-04T22:33:32.510Z,70.81
2022-09-04T22:37:12.558Z,71.15
2022-09-04T22:40:56.650Z,71.19
2022-09-04T22:44:24.276Z,71.61
2022-09-04T22:47:36.431Z,72.43
2022-09-04T22:51:03.703Z,72.84
2022-09-04T22:54:35.800Z,73.56
2022-09-04T22:57:43.855Z,74.24
2022-09-04T23:01:35.663Z,74.29
2022-09-04T23:04:57.394Z,75.02
2022-09-04T23:13:48.454Z,75.58
2022-09-04T23:14:02.934Z,75.56
2022-09-04T23:15:59.247Z,76.48
2022-09-04T23:25:58.170Z,77.00
2022-09-04T23:26:43.938Z,76.10
2022-09-04T23:26:58.283Z,75.72
2022-09-04T23:30:25.206Z,76.17
2022-09-04T23:34:08.007Z,76.81
2022-09-04T23:38:00.471Z,77.01
2022-09-04T23:41:24.796Z,77.38
2022-09-04T23:44:55.768Z,77.77
2022-09-04T23:48:10.073Z,77.68
2022-09-04T23:51:23.039Z,77.70
2022-09-04T23:54:41.881Z,77.67
2022-09-04T23:57:55.896Z,77.48
